Time;durP1;ratioP1;P1;durP2;ratioP2;P2;SDS_P1;SDS_P2;PMS_P1;PMS_P2;Temp;Humidity;BMP_temperature;BMP_pressure;BME280_temperature;BME280_humidity;BME280_pressure;Samples;Min_cycle;Max_cycle;Signal;HPM_P1;HPM_P2
2023/03/06 00:00:45;;;;;;;15.85;3.88;;;;;;;;;;5081438;28;20040;-85
2023/03/06 00:03:10;;;;;;;4.78;3.45;;;;;;;;;;5084307;28;20035;-84
2023/03/06 00:05:36;;;;;;;10.40;3.28;;;;;;;;;;5083206;28;20024;-84
2023/03/06 00:08:01;;;;;;;6.53;3.13;;;;;;;;;;5088267;28;20020;-85
2023/03/06 00:10:29;;;;;;;6.18;2.90;;;;;;;;;;5085803;28;20050;-84
2023/03/06 00:13:03;;;;;;;5.32;3.42;;;;;;;;;;5086295;28;20024;-85
2023/03/06 00:15:29;;;;;;;6.18;3.58;;;;;;;;;;5091000;28;20357;-87
2023/03/06 00:17:56;;;;;;;3.38;2.65;;;;;;;;;;5085492;28;20031;-83
2023/03/06 00:20:23;;;;;;;2.35;2.13;;;;;;;;;;5087055;28;20059;-81
2023/03/06 00:22:49;;;;;;;8.23;3.20;;;;;;;;;;5084320;28;20024;-83
2023/03/06 00:25:18;;;;;;;3.72;2.45;;;;;;;;;;5084374;28;20031;-82
2023/03/06 00:27:44;;;;;;;14.85;5.20;;;;;;;;;;5082027;28;20034;-83
2023/03/06 00:30:12;;;;;;;4.78;2.78;;;;;;;;;;5090374;28;20024;-83
2023/03/06 00:32:38;;;;;;;4.70;3.03;;;;;;;;;;5079955;28;20074;-82
2023/03/06 00:35:04;;;;;;;3.97;3.22;;;;;;;;;;5109838;28;20059;-82
2023/03/06 00:37:29;;;;;;;4.90;3.40;;;;;;;;;;5088440;28;20103;-83
2023/03/06 00:39:55;;;;;;;4.63;2.58;;;;;;;;;;5081047;28;20135;-80
2023/03/06 00:42:20;;;;;;;4.97;2.13;;;;;;;;;;5088796;28;20031;-82
2023/03/06 00:44:46;;;;;;;16.63;2.85;;;;;;;;;;5081892;28;20186;-82
2023/03/06 00:47:12;;;;;;;6.90;3.65;;;;;;;;;;5086277;28;20020;-80
2023/03/06 00:49:37;;;;;;;4.97;3.28;;;;;;;;;;5087252;28;20035;-81
2023/03/06 00:52:03;;;;;;;4.05;2.42;;;;;;;;;;5085277;28;20025;-81
2023/03/06 00:54:29;;;;;;;10.40;4.50;;;;;;;;;;5087625;28;20024;-82
2023/03/06 00:56:54;;;;;;;4.35;2.63;;;;;;;;;;5079927;28;20062;-81
2023/03/06 00:59:19;;;;;;;8.25;3.28;;;;;;;;;;5081818;28;20024;-82
2023/03/06 01:01:45;;;;;;;8.00;3.38;;;;;;;;;;5085746;28;20527;-80
2023/03/06 01:04:11;;;;;;;2.78;1.67;;;;;;;;;;5085070;28;20024;-80
2023/03/06 01:06:36;;;;;;;10.60;3.47;;;;;;;;;;5082427;28;20423;-82
2023/03/06 01:09:03;;;;;;;11.23;5.20;;;;;;;;;;5083342;28;20077;-80
2023/03/06 01:11:28;;;;;;;7.03;4.07;;;;;;;;;;5085664;28;20092;-81
2023/03/06 01:13:54;;;;;;;7.45;4.35;;;;;;;;;;5086334;28;20122;-82
2023/03/06 01:16:20;;;;;;;6.15;2.72;;;;;;;;;;5085648;28;20418;-81
2023/03/06 01:18:46;;;;;;;5.28;2.70;;;;;;;;;;5085636;28;20508;-81
2023/03/06 01:21:12;;;;;;;4.25;2.30;;;;;;;;;;5083226;28;20137;-81
2023/03/06 01:23:38;;;;;;;4.47;2.30;;;;;;;;;;5086376;28;20027;-81
2023/03/06 01:26:04;;;;;;;7.80;4.65;;;;;;;;;;5080048;28;20039;-81
2023/03/06 01:28:29;;;;;;;3.95;2.17;;;;;;;;;;5084831;28;20024;-80
2023/03/06 01:30:55;;;;;;;8.63;4.20;;;;;;;;;;5086884;28;20024;-81
2023/03/06 01:33:21;;;;;;;3.35;2.10;;;;;;;;;;5082153;28;20028;-82
2023/03/06 01:35:46;;;;;;;3.53;2.30;;;;;;;;;;5080859;28;20085;-81
2023/03/06 01:38:12;;;;;;;2.53;1.90;;;;;;;;;;5084850;28;20181;-83
2023/03/06 01:40:38;;;;;;;3.85;3.05;;;;;;;;;;5087093;28;20033;-82
2023/03/06 01:43:30;;;;;;;6.97;2.88;;;;;;;;;;5083671;28;20130;-81
2023/03/06 01:46:25;;;;;;;4.63;3.05;;;;;;;;;;5085895;28;20084;-84
2023/03/06 01:48:54;;;;;;;6.00;2.83;;;;;;;;;;5079330;28;20543;-83
2023/03/06 01:51:21;;;;;;;5.82;3.33;;;;;;;;;;5107061;28;20024;-82
2023/03/06 01:53:48;;;;;;;5.30;3.33;;;;;;;;;;5080157;28;20419;-84
2023/03/06 01:56:14;;;;;;;5.55;4.05;;;;;;;;;;5081549;28;20504;-83
2023/03/06 01:58:45;;;;;;;5.03;3.28;;;;;;;;;;5082098;28;20027;-83
2023/03/06 02:01:14;;;;;;;3.53;2.53;;;;;;;;;;5107768;27;21780;-81
2023/03/06 02:03:41;;;;;;;7.43;3.42;;;;;;;;;;5086737;28;20020;-82
2023/03/06 02:06:07;;;;;;;5.22;2.58;;;;;;;;;;5085432;28;20029;-82
2023/03/06 02:08:33;;;;;;;4.78;2.42;;;;;;;;;;5086155;28;20329;-81
2023/03/06 02:11:15;;;;;;;11.70;3.50;;;;;;;;;;5084663;28;20736;-81
2023/03/06 02:13:40;;;;;;;3.22;2.58;;;;;;;;;;5084394;28;20028;-84
2023/03/06 02:16:08;;;;;;;4.65;3.08;;;;;;;;;;5092131;28;20409;-82
2023/03/06 02:18:34;;;;;;;4.22;3.00;;;;;;;;;;5094237;28;20024;-83
2023/03/06 02:21:05;;;;;;;4.78;3.55;;;;;;;;;;5085536;28;20094;-83
2023/03/06 02:24:10;;;;;;;4.13;2.83;;;;;;;;;;5092158;28;20060;-83
2023/03/06 02:26:36;;;;;;;2.75;2.30;;;;;;;;;;5087846;28;20035;-84
2023/03/06 02:29:03;;;;;;;6.20;3.20;;;;;;;;;;5090978;28;20034;-84
2023/03/06 02:31:30;;;;;;;4.18;2.85;;;;;;;;;;5089409;28;20590;-84
2023/03/06 02:34:15;;;;;;;5.95;2.40;;;;;;;;;;5083337;28;20477;-84
2023/03/06 02:36:54;;;;;;;6.05;3.63;;;;;;;;;;5108215;28;20056;-85
2023/03/06 02:39:23;;;;;;;4.10;2.80;;;;;;;;;;5084788;28;20033;-83
2023/03/06 02:41:49;;;;;;;;;;;;;;;;;;5089927;28;20020;-82
2023/03/06 02:44:14;;;;;;;10.27;3.13;;;;;;;;;;5083088;28;19919;-82
2023/03/06 02:46:40;;;;;;;20.73;5.25;;;;;;;;;;5089544;28;20059;-81
2023/03/06 02:49:05;;;;;;;4.10;3.10;;;;;;;;;;5089132;28;20027;-81
2023/03/06 02:51:30;;;;;;;4.63;3.95;;;;;;;;;;5085350;28;20635;-81
2023/03/06 02:53:56;;;;;;;9.70;2.67;;;;;;;;;;5090387;28;20432;-83
2023/03/06 02:56:21;;;;;;;5.35;3.08;;;;;;;;;;5109739;28;20426;-84
2023/03/06 02:58:47;;;;;;;3.10;2.72;;;;;;;;;;5082086;28;20029;-86
2023/03/06 03:01:12;;;;;;;6.07;3.42;;;;;;;;;;5083692;28;20090;-81
2023/03/06 03:03:38;;;;;;;9.50;4.10;;;;;;;;;;5086951;28;20107;-82
2023/03/06 03:06:04;;;;;;;8.10;3.58;;;;;;;;;;5082398;28;20036;-83
2023/03/06 03:08:31;;;;;;;14.57;3.28;;;;;;;;;;5080874;28;20008;-82
2023/03/06 03:10:57;;;;;;;6.38;4.22;;;;;;;;;;5085979;28;20031;-82
2023/03/06 03:13:22;;;;;;;6.97;4.00;;;;;;;;;;5079415;28;20032;-81
2023/03/06 03:16:05;;;;;;;5.28;2.63;;;;;;;;;;5109283;28;20020;-84
2023/03/06 03:18:32;;;;;;;7.22;3.33;;;;;;;;;;5089550;28;20028;-83
2023/03/06 03:20:57;;;;;;;4.32;1.77;;;;;;;;;;5088510;28;20029;-84
2023/03/06 03:23:23;;;;;;;9.15;3.45;;;;;;;;;;5087734;28;20092;-85
2023/03/06 03:25:49;;;;;;;7.07;3.15;;;;;;;;;;5085023;28;20020;-87
2023/03/06 03:28:15;;;;;;;5.38;3.38;;;;;;;;;;5090492;28;20036;-84
2023/03/06 03:30:41;;;;;;;8.38;4.45;;;;;;;;;;5086068;28;20035;-84
2023/03/06 03:33:06;;;;;;;5.13;3.15;;;;;;;;;;5085992;28;20040;-85
2023/03/06 03:35:32;;;;;;;5.65;3.28;;;;;;;;;;5079512;28;20384;-83
2023/03/06 03:37:58;;;;;;;7.28;3.38;;;;;;;;;;5087055;28;20024;-82
2023/03/06 03:40:23;;;;;;;4.35;2.97;;;;;;;;;;5088139;28;20103;-81
2023/03/06 03:42:49;;;;;;;4.45;2.50;;;;;;;;;;5085397;28;20422;-83
2023/03/06 03:45:14;;;;;;;4.53;2.75;;;;;;;;;;5086624;28;20074;-83
2023/03/06 03:47:40;;;;;;;10.80;3.33;;;;;;;;;;5090070;28;20031;-84
2023/03/06 03:50:07;;;;;;;3.88;3.42;;;;;;;;;;5076025;28;20024;-83
2023/03/06 03:52:32;;;;;;;5.18;2.85;;;;;;;;;;5080799;28;20757;-82
2023/03/06 03:54:57;;;;;;;3.67;2.15;;;;;;;;;;5084495;28;20540;-83
2023/03/06 03:57:26;;;;;;;5.30;2.70;;;;;;;;;;5081928;28;20028;-84
2023/03/06 03:59:51;;;;;;;2.47;2.28;;;;;;;;;;5081170;28;20107;-83
2023/03/06 04:02:17;;;;;;;6.80;3.30;;;;;;;;;;5084455;28;20032;-83
2023/03/06 04:04:42;;;;;;;8.18;3.35;;;;;;;;;;5089093;28;20044;-84
2023/03/06 04:07:08;;;;;;;4.70;3.00;;;;;;;;;;5081249;28;20031;-83
2023/03/06 04:09:33;;;;;;;5.57;3.03;;;;;;;;;;5087506;28;20062;-84
2023/03/06 04:11:59;;;;;;;12.23;3.30;;;;;;;;;;5110801;28;20502;-83
2023/03/06 04:14:24;;;;;;;6.85;3.90;;;;;;;;;;5079698;28;20036;-83
2023/03/06 04:16:50;;;;;;;5.57;2.88;;;;;;;;;;5086528;28;20028;-84
2023/03/06 04:19:15;;;;;;;9.15;3.20;;;;;;;;;;5088149;28;20120;-85
2023/03/06 04:21:40;;;;;;;4.40;3.00;;;;;;;;;;5089649;28;20059;-86
2023/03/06 04:24:06;;;;;;;2.22;1.95;;;;;;;;;;5082967;28;20107;-84
2023/03/06 04:26:31;;;;;;;4.30;3.33;;;;;;;;;;5091829;28;20017;-84
2023/03/06 04:28:57;;;;;;;5.88;4.13;;;;;;;;;;5082071;28;20046;-83
2023/03/06 04:31:23;;;;;;;4.78;2.80;;;;;;;;;;5086708;28;20113;-85
2023/03/06 04:33:48;;;;;;;5.95;3.25;;;;;;;;;;5087818;28;20024;-85
2023/03/06 04:36:23;;;;;;;5.20;3.22;;;;;;;;;;5086457;28;20380;-85
2023/03/06 04:38:49;;;;;;;4.25;2.97;;;;;;;;;;5087526;28;20036;-84
2023/03/06 04:41:14;;;;;;;5.32;3.15;;;;;;;;;;5082745;28;20405;-86
2023/03/06 04:43:39;;;;;;;7.82;3.85;;;;;;;;;;5081183;28;20486;-86
2023/03/06 04:46:05;;;;;;;5.88;3.17;;;;;;;;;;5085402;28;20031;-85
2023/03/06 04:48:31;;;;;;;7.55;3.20;;;;;;;;;;5085363;28;20434;-86
2023/03/06 04:50:56;;;;;;;6.10;3.75;;;;;;;;;;5086753;28;20103;-84
2023/03/06 04:53:21;;;;;;;9.43;4.13;;;;;;;;;;5083542;28;20074;-84
2023/03/06 04:55:47;;;;;;;5.82;3.60;;;;;;;;;;5083755;28;20441;-83
2023/03/06 04:58:13;;;;;;;10.80;3.42;;;;;;;;;;5089496;28;20056;-83
2023/03/06 05:00:41;;;;;;;7.95;4.10;;;;;;;;;;5085925;28;20028;-83
2023/03/06 05:03:16;;;;;;;3.50;2.42;;;;;;;;;;5091545;28;20020;-86
2023/03/06 05:05:42;;;;;;;6.78;3.35;;;;;;;;;;5083106;28;20077;-85
2023/03/06 05:08:11;;;;;;;5.15;3.40;;;;;;;;;;5087127;28;20456;-84
2023/03/06 05:10:37;;;;;;;5.35;3.47;;;;;;;;;;5085148;28;20032;-83
2023/03/06 05:13:02;;;;;;;6.40;4.35;;;;;;;;;;5085386;28;20028;-82
2023/03/06 05:15:28;;;;;;;9.35;4.45;;;;;;;;;;5083097;28;20024;-83
2023/03/06 05:17:54;;;;;;;7.28;4.28;;;;;;;;;;5081715;28;20111;-81
2023/03/06 05:20:19;;;;;;;6.25;3.80;;;;;;;;;;5082427;28;20069;-83
2023/03/06 05:22:45;;;;;;;6.30;3.42;;;;;;;;;;5089337;28;20082;-83
2023/03/06 05:25:10;;;;;;;6.95;2.65;;;;;;;;;;5085820;28;20433;-85
2023/03/06 05:27:36;;;;;;;10.00;3.63;;;;;;;;;;5083040;28;20070;-85
2023/03/06 05:30:03;;;;;;;6.38;3.55;;;;;;;;;;5084343;28;20024;-81
2023/03/06 05:32:28;;;;;;;3.67;3.33;;;;;;;;;;5083876;28;20044;-81
2023/03/06 05:34:54;;;;;;;7.80;3.47;;;;;;;;;;5084518;28;20021;-83
2023/03/06 05:37:21;;;;;;;8.10;4.40;;;;;;;;;;5090044;28;20034;-81
2023/03/06 05:39:47;;;;;;;9.00;4.10;;;;;;;;;;5086049;28;20133;-83
2023/03/06 05:42:12;;;;;;;10.48;4.93;;;;;;;;;;5108268;28;20061;-83
2023/03/06 05:44:38;;;;;;;5.95;3.95;;;;;;;;;;5086769;28;20031;-84
2023/03/06 05:47:04;;;;;;;11.40;6.90;;;;;;;;;;5084703;28;20028;-83
2023/03/06 05:49:34;;;;;;;6.45;3.92;;;;;;;;;;5085771;28;20032;-82
2023/03/06 05:52:02;;;;;;;7.38;5.40;;;;;;;;;;5083769;28;20477;-85
2023/03/06 05:54:29;;;;;;;6.43;4.43;;;;;;;;;;5085131;28;20023;-83
2023/03/06 05:56:56;;;;;;;8.20;4.43;;;;;;;;;;5081152;28;20034;-82
2023/03/06 05:59:22;;;;;;;14.18;6.68;;;;;;;;;;5077613;28;20029;-80
2023/03/06 06:01:47;;;;;;;8.48;5.85;;;;;;;;;;5079460;28;20464;-81
2023/03/06 06:04:14;;;;;;;8.70;4.72;;;;;;;;;;5089311;28;20027;-82
2023/03/06 06:06:39;;;;;;;8.85;5.63;;;;;;;;;;5081507;28;20027;-82
2023/03/06 06:09:04;;;;;;;7.68;3.92;;;;;;;;;;5084473;28;20027;-82
2023/03/06 06:11:30;;;;;;;8.73;3.53;;;;;;;;;;5084740;28;20024;-84
2023/03/06 06:13:55;;;;;;;6.88;3.28;;;;;;;;;;5081405;28;20460;-82
2023/03/06 06:16:21;;;;;;;6.72;3.38;;;;;;;;;;5086913;28;20077;-85
2023/03/06 06:18:46;;;;;;;7.15;3.88;;;;;;;;;;5085805;28;20416;-84
2023/03/06 06:21:13;;;;;;;11.73;5.30;;;;;;;;;;5078463;28;20032;-81
2023/03/06 06:23:39;;;;;;;10.73;3.47;;;;;;;;;;5082656;28;20021;-82
2023/03/06 06:26:06;;;;;;;9.63;4.97;;;;;;;;;;5085837;28;20032;-86
2023/03/06 06:28:34;;;;;;;9.48;5.07;;;;;;;;;;5103366;28;20490;-84
2023/03/06 06:31:05;;;;;;;10.23;4.75;;;;;;;;;;5081021;28;20024;-83
2023/03/06 06:33:31;;;;;;;8.32;5.10;;;;;;;;;;5083112;28;20028;-84
2023/03/06 06:35:56;;;;;;;9.93;3.78;;;;;;;;;;5083637;28;20524;-83
2023/03/06 06:38:21;;;;;;;11.32;5.75;;;;;;;;;;5084537;28;20032;-84
2023/03/06 06:40:47;;;;;;;10.95;4.93;;;;;;;;;;5080745;28;20084;-84
2023/03/06 06:43:12;;;;;;;7.53;4.90;;;;;;;;;;5078100;28;20123;-85
2023/03/06 06:45:38;;;;;;;8.10;4.85;;;;;;;;;;5079349;28;20035;-83
2023/03/06 06:48:04;;;;;;;10.98;4.20;;;;;;;;;;5079167;28;20027;-85
2023/03/06 06:50:29;;;;;;;11.25;6.32;;;;;;;;;;5080799;28;20024;-84
2023/03/06 06:52:54;;;;;;;7.10;4.07;;;;;;;;;;5081885;28;20028;-84
2023/03/06 06:55:20;;;;;;;13.82;4.97;;;;;;;;;;5083026;28;20073;-84
2023/03/06 06:57:45;;;;;;;7.90;3.50;;;;;;;;;;5077607;28;20028;-84
2023/03/06 07:00:13;;;;;;;9.70;5.00;;;;;;;;;;5086243;28;20111;-85
2023/03/06 07:02:39;;;;;;;5.25;2.75;;;;;;;;;;5086761;28;20024;-85
2023/03/06 07:05:06;;;;;;;8.52;4.47;;;;;;;;;;5081541;28;20020;-85
2023/03/06 07:07:37;;;;;;;7.40;4.07;;;;;;;;;;5088981;28;20031;-89
2023/03/06 07:10:05;;;;;;;5.45;3.17;;;;;;;;;;5085929;28;20025;-83
2023/03/06 07:12:31;;;;;;;8.85;4.25;;;;;;;;;;5088846;28;20032;-81
2023/03/06 07:14:57;;;;;;;5.57;4.47;;;;;;;;;;5085502;28;20165;-83
2023/03/06 07:17:22;;;;;;;6.43;4.32;;;;;;;;;;5103872;28;20099;-84
2023/03/06 07:19:48;;;;;;;9.63;3.95;;;;;;;;;;5083563;28;20029;-86
2023/03/06 07:22:13;;;;;;;6.75;4.78;;;;;;;;;;5088062;28;20032;-84
2023/03/06 07:24:38;;;;;;;10.98;5.25;;;;;;;;;;5108064;28;20031;-83
2023/03/06 07:27:04;;;;;;;6.72;4.03;;;;;;;;;;5078603;28;20080;-85
2023/03/06 07:29:31;;;;;;;6.57;4.55;;;;;;;;;;5084926;28;20423;-84
2023/03/06 07:31:57;;;;;;;10.50;4.95;;;;;;;;;;5084533;28;20072;-84
2023/03/06 07:34:22;;;;;;;9.40;5.38;;;;;;;;;;5082948;28;20484;-84
2023/03/06 07:36:49;;;;;;;16.17;8.35;;;;;;;;;;5086349;28;20103;-84
2023/03/06 07:39:15;;;;;;;13.20;5.75;;;;;;;;;;5082423;28;20035;-83
2023/03/06 07:41:40;;;;;;;14.98;6.18;;;;;;;;;;5087177;28;20039;-84
2023/03/06 07:44:06;;;;;;;9.43;4.70;;;;;;;;;;5085053;28;20028;-83
2023/03/06 07:46:31;;;;;;;14.45;5.32;;;;;;;;;;5086103;28;20031;-83
2023/03/06 07:48:57;;;;;;;7.45;4.00;;;;;;;;;;5084086;28;20024;-82
2023/03/06 07:51:22;;;;;;;7.68;5.43;;;;;;;;;;5085454;28;20028;-83
2023/03/06 07:53:49;;;;;;;8.48;4.88;;;;;;;;;;5085025;28;20496;-81
2023/03/06 07:56:14;;;;;;;8.43;4.72;;;;;;;;;;5090267;28;20059;-82
2023/03/06 07:58:44;;;;;;;8.98;4.65;;;;;;;;;;5080101;28;20060;-84
2023/03/06 08:01:16;;;;;;;8.82;3.90;;;;;;;;;;5086297;28;20107;-81
2023/03/06 08:03:41;;;;;;;11.73;5.45;;;;;;;;;;5083756;28;20036;-85
2023/03/06 08:06:13;;;;;;;8.02;4.20;;;;;;;;;;5084484;28;20074;-85
2023/03/06 08:08:40;;;;;;;10.13;5.20;;;;;;;;;;5081369;28;20016;-83
2023/03/06 08:11:07;;;;;;;7.68;3.80;;;;;;;;;;5089633;28;20089;-85
2023/03/06 08:13:33;;;;;;;10.63;4.88;;;;;;;;;;5085497;28;20063;-84
2023/03/06 08:15:59;;;;;;;9.77;5.95;;;;;;;;;;5085103;28;20502;-85
2023/03/06 08:18:25;;;;;;;5.22;3.83;;;;;;;;;;5082222;28;20082;-82
2023/03/06 08:21:08;;;;;;;9.32;5.32;;;;;;;;;;5081561;28;20043;-81
2023/03/06 08:23:34;;;;;;;10.45;4.82;;;;;;;;;;5089475;28;20476;-82
2023/03/06 08:26:03;;;;;;;12.80;4.47;;;;;;;;;;5080778;28;20020;-82
2023/03/06 08:28:28;;;;;;;10.37;6.33;;;;;;;;;;5082740;28;20016;-81
2023/03/06 08:30:55;;;;;;;9.50;5.35;;;;;;;;;;5085095;28;20036;-82
2023/03/06 08:33:21;;;;;;;7.82;4.70;;;;;;;;;;5082363;28;20105;-84
2023/03/06 08:35:46;;;;;;;7.55;4.65;;;;;;;;;;5080618;28;20078;-83
2023/03/06 08:38:12;;;;;;;13.60;5.45;;;;;;;;;;5079440;28;20107;-83
2023/03/06 08:40:37;;;;;;;7.57;5.18;;;;;;;;;;5082745;28;20112;-81
2023/03/06 08:43:03;;;;;;;10.05;4.82;;;;;;;;;;5084335;28;20047;-82
2023/03/06 08:45:28;;;;;;;11.05;3.80;;;;;;;;;;5086893;28;20041;-82
2023/03/06 08:47:53;;;;;;;5.55;3.83;;;;;;;;;;5085286;28;20067;-82
2023/03/06 08:50:19;;;;;;;11.85;4.95;;;;;;;;;;5083310;28;20023;-82
2023/03/06 08:52:44;;;;;;;8.05;4.80;;;;;;;;;;5082021;28;20024;-83
2023/03/06 08:55:10;;;;;;;13.18;4.60;;;;;;;;;;5089358;28;20066;-82
2023/03/06 08:57:35;;;;;;;8.48;5.10;;;;;;;;;;5085929;28;20024;-83
2023/03/06 09:00:05;;;;;;;7.75;4.68;;;;;;;;;;5077245;28;20042;-80
2023/03/06 09:02:31;;;;;;;;;;;;;;;;;;5081591;28;20032;-81
2023/03/06 09:04:58;;;;;;;5.20;3.55;;;;;;;;;;5082688;28;19913;-80
2023/03/06 09:07:23;;;;;;;11.50;4.88;;;;;;;;;;5085501;28;20489;-82
2023/03/06 09:09:49;;;;;;;9.35;4.40;;;;;;;;;;5082288;28;20145;-84
2023/03/06 09:12:14;;;;;;;8.13;4.35;;;;;;;;;;5083035;28;20436;-81
2023/03/06 09:14:39;;;;;;;12.05;4.72;;;;;;;;;;5085474;28;20091;-82
2023/03/06 09:17:05;;;;;;;17.52;4.90;;;;;;;;;;5084175;28;20392;-83
2023/03/06 09:19:30;;;;;;;8.55;4.70;;;;;;;;;;5085136;28;20107;-82
2023/03/06 09:21:58;;;;;;;6.10;3.88;;;;;;;;;;5078719;28;20119;-83
2023/03/06 09:24:23;;;;;;;7.03;4.80;;;;;;;;;;5086344;28;20024;-83
2023/03/06 09:26:49;;;;;;;9.07;4.93;;;;;;;;;;5079101;28;20033;-81
2023/03/06 09:29:15;;;;;;;7.97;4.65;;;;;;;;;;5085306;28;20376;-78
2023/03/06 09:31:41;;;;;;;5.18;3.83;;;;;;;;;;5085564;28;20193;-83
2023/03/06 09:34:06;;;;;;;10.18;6.03;;;;;;;;;;5083600;28;20107;-82
2023/03/06 09:36:32;;;;;;;6.68;3.92;;;;;;;;;;5087747;28;20028;-83
2023/03/06 09:38:57;;;;;;;8.18;4.88;;;;;;;;;;5078475;28;20029;-81
2023/03/06 09:41:33;;;;;;;12.35;5.45;;;;;;;;;;5082789;28;20349;-82
2023/03/06 09:44:24;;;;;;;5.65;4.10;;;;;;;;;;5085796;28;20023;-80
2023/03/06 09:47:09;;;;;;;8.73;5.93;;;;;;;;;;5078731;28;20115;-83
2023/03/06 09:49:43;;;;;;;8.60;4.00;;;;;;;;;;5078649;28;20115;-83
2023/03/06 09:52:30;;;;;;;7.53;4.60;;;;;;;;;;5086187;28;20056;-79
2023/03/06 09:55:11;;;;;;;7.53;5.20;;;;;;;;;;5083574;28;20019;-81
2023/03/06 09:57:44;;;;;;;10.40;5.25;;;;;;;;;;5085820;28;20387;-82
2023/03/06 10:00:19;;;;;;;10.40;4.97;;;;;;;;;;5082163;28;20521;-81
2023/03/06 10:02:44;;;;;;;7.70;4.78;;;;;;;;;;5103960;28;20040;-82
2023/03/06 10:05:20;;;;;;;7.85;3.42;;;;;;;;;;5085883;28;20038;-82
2023/03/06 10:07:54;;;;;;;10.07;4.72;;;;;;;;;;5085574;28;20031;-81
2023/03/06 10:10:26;;;;;;;8.27;4.68;;;;;;;;;;5082064;28;20025;-82
2023/03/06 10:13:04;;;;;;;5.68;3.45;;;;;;;;;;5083056;28;20383;-83
2023/03/06 10:15:34;;;;;;;7.10;3.80;;;;;;;;;;5088745;28;20027;-83
2023/03/06 10:18:02;;;;;;;6.18;4.22;;;;;;;;;;5083461;28;20031;-81
2023/03/06 10:20:43;;;;;;;23.13;5.68;;;;;;;;;;5083237;28;20024;-82
2023/03/06 10:23:34;;;;;;;9.40;4.25;;;;;;;;;;5087218;28;20028;-81
2023/03/06 10:26:07;;;;;;;5.13;3.40;;;;;;;;;;5084186;28;20060;-81
2023/03/06 10:28:39;;;;;;;5.85;3.92;;;;;;;;;;5109347;28;20073;-82
2023/03/06 10:31:14;;;;;;;5.75;3.60;;;;;;;;;;5085582;28;20029;-81
2023/03/06 10:33:48;;;;;;;12.07;4.43;;;;;;;;;;5084447;28;20529;-83
2023/03/06 10:36:16;;;;;;;5.80;4.38;;;;;;;;;;5106561;28;20030;-81
2023/03/06 10:38:44;;;;;;;9.30;4.30;;;;;;;;;;5083418;28;20090;-82
2023/03/06 10:41:12;;;;;;;13.10;4.93;;;;;;;;;;5082958;28;20031;-82
2023/03/06 10:43:59;;;;;;;6.22;4.55;;;;;;;;;;5090697;28;20107;-84
2023/03/06 10:46:30;;;;;;;8.43;4.03;;;;;;;;;;5078546;28;20044;-81
2023/03/06 10:48:58;;;;;;;6.10;4.07;;;;;;;;;;5086211;28;20028;-83
2023/03/06 10:51:25;;;;;;;7.53;4.03;;;;;;;;;;5084499;28;20036;-82
2023/03/06 10:53:59;;;;;;;7.68;3.28;;;;;;;;;;5087248;28;20039;-80
2023/03/06 10:56:34;;;;;;;3.22;1.98;;;;;;;;;;5085597;28;20032;-79
2023/03/06 10:59:24;;;;;;;7.13;2.95;;;;;;;;;;5082330;28;20114;-82
2023/03/06 11:02:29;;;;;;;6.80;3.35;;;;;;;;;;5086159;28;20024;-81
2023/03/06 11:04:58;;;;;;;3.30;1.90;;;;;;;;;;5083588;28;20024;-83
2023/03/06 11:07:34;;;;;;;3.30;1.58;;;;;;;;;;5087642;28;20020;-81
2023/03/06 11:10:23;;;;;;;3.05;1.83;;;;;;;;;;5086991;28;20024;-84
2023/03/06 11:13:06;;;;;;;3.50;2.07;;;;;;;;;;5087661;28;20040;-83
2023/03/06 11:15:32;;;;;;;2.65;1.58;;;;;;;;;;5086509;28;20308;-80
2023/03/06 11:18:23;;;;;;;5.22;2.08;;;;;;;;;;5080191;28;20044;-82
2023/03/06 11:20:54;;;;;;;4.35;1.80;;;;;;;;;;5108528;28;20027;-80
2023/03/06 11:23:34;;;;;;;2.95;1.88;;;;;;;;;;5089517;28;20082;-80
2023/03/06 11:26:11;;;;;;;3.75;1.80;;;;;;;;;;5082903;28;20099;-81
2023/03/06 11:28:39;;;;;;;3.08;2.08;;;;;;;;;;5088239;28;20016;-80
2023/03/06 11:31:11;;;;;;;3.72;1.63;;;;;;;;;;5107154;28;20070;-80
2023/03/06 11:33:59;;;;;;;10.77;1.95;;;;;;;;;;5087750;28;20428;-80
2023/03/06 11:36:37;;;;;;;1.95;1.60;;;;;;;;;;5092107;28;20447;-78
2023/03/06 11:39:31;;;;;;;3.03;1.73;;;;;;;;;;5081364;28;20027;-79
2023/03/06 11:42:09;;;;;;;5.30;2.05;;;;;;;;;;5083696;28;20047;-79
2023/03/06 11:44:54;;;;;;;4.07;2.15;;;;;;;;;;5087971;28;20056;-80
2023/03/06 11:47:35;;;;;;;6.18;3.45;;;;;;;;;;5088763;28;20494;-78
2023/03/06 11:50:12;;;;;;;4.95;2.20;;;;;;;;;;5091742;28;20107;-80
2023/03/06 11:53:05;;;;;;;1.90;1.30;;;;;;;;;;5090184;28;20043;-80
2023/03/06 11:55:53;;;;;;;3.53;1.83;;;;;;;;;;5086914;28;20051;-81
2023/03/06 11:58:24;;;;;;;3.78;2.10;;;;;;;;;;5084172;28;20028;-81
2023/03/06 12:00:56;;;;;;;6.13;2.00;;;;;;;;;;5085744;28;20032;-79
2023/03/06 12:03:30;;;;;;;7.25;2.53;;;;;;;;;;5083177;28;20038;-81
2023/03/06 12:05:55;;;;;;;3.33;1.50;;;;;;;;;;5083912;28;20423;-81
2023/03/06 12:08:49;;;;;;;3.65;1.88;;;;;;;;;;5080287;28;20021;-81
2023/03/06 12:11:36;;;;;;;3.75;2.00;;;;;;;;;;5106543;28;20077;-80
2023/03/06 12:14:13;;;;;;;5.57;2.20;;;;;;;;;;5090566;28;20039;-80
2023/03/06 12:17:08;;;;;;;4.63;2.03;;;;;;;;;;5089581;28;20116;-79
2023/03/06 12:20:24;;;;;;;2.30;1.50;;;;;;;;;;5077740;28;20039;-82
2023/03/06 12:22:51;;;;;;;2.97;1.65;;;;;;;;;;5063392;28;20040;-81
2023/03/06 12:25:20;;;;;;;2.33;1.60;;;;;;;;;;5080662;28;20043;-80
2023/03/06 12:27:45;;;;;;;2.63;1.52;;;;;;;;;;5090836;28;20024;-81
2023/03/06 12:30:19;;;;;;;2.20;1.33;;;;;;;;;;5079321;28;20058;-82
2023/03/06 12:33:03;;;;;;;2.25;1.33;;;;;;;;;;5089794;28;20048;-82
2023/03/06 12:35:29;;;;;;;2.60;1.73;;;;;;;;;;5075352;28;20032;-80
2023/03/06 12:38:21;;;;;;;1.25;1.15;;;;;;;;;;5077636;28;20050;-81
2023/03/06 12:41:09;;;;;;;5.72;2.35;;;;;;;;;;5104670;28;20044;-82
2023/03/06 12:43:52;;;;;;;3.85;2.35;;;;;;;;;;5077996;28;20060;-81
2023/03/06 12:46:21;;;;;;;4.95;2.83;;;;;;;;;;5081935;28;20028;-83
2023/03/06 12:49:27;;;;;;;7.30;2.33;;;;;;;;;;5084181;28;20177;-82
2023/03/06 12:51:54;;;;;;;4.88;2.22;;;;;;;;;;5048522;28;20033;-83
2023/03/06 12:54:24;;;;;;;4.07;2.05;;;;;;;;;;5081290;28;20044;-83
2023/03/06 12:56:50;;;;;;;3.97;1.73;;;;;;;;;;5090307;28;20107;-80
2023/03/06 12:59:38;;;;;;;8.43;1.92;;;;;;;;;;5091006;28;20077;-82
2023/03/06 13:02:31;;;;;;;3.60;1.40;;;;;;;;;;5082825;28;20019;-82
2023/03/06 13:05:18;;;;;;;2.90;1.67;;;;;;;;;;5082322;28;20082;-80
2023/03/06 13:07:56;;;;;;;1.70;1.27;;;;;;;;;;5086302;28;20086;-82
2023/03/06 13:10:32;;;;;;;3.85;1.58;;;;;;;;;;5084126;28;20024;-84
2023/03/06 13:13:00;;;;;;;2.45;1.65;;;;;;;;;;5086312;28;20094;-80
2023/03/06 13:15:39;;;;;;;2.28;1.25;;;;;;;;;;5081573;28;20111;-80
2023/03/06 13:18:22;;;;;;;2.63;1.65;;;;;;;;;;5085403;28;20824;-80
2023/03/06 13:20:50;;;;;;;2.40;1.50;;;;;;;;;;5077922;28;20385;-81
2023/03/06 13:23:39;;;;;;;3.17;1.85;;;;;;;;;;5086957;28;20036;-81
2023/03/06 13:26:31;;;;;;;4.47;2.45;;;;;;;;;;5084504;28;20031;-82
2023/03/06 13:28:57;;;;;;;5.30;1.95;;;;;;;;;;5077953;28;20036;-81
2023/03/06 13:31:51;;;;;;;2.47;1.48;;;;;;;;;;5090031;28;20043;-81
2023/03/06 13:34:35;;;;;;;2.63;1.55;;;;;;;;;;5083821;28;20024;-82
2023/03/06 13:37:12;;;;;;;1.88;1.23;;;;;;;;;;5102668;28;20024;-82
2023/03/06 13:39:59;;;;;;;3.30;1.73;;;;;;;;;;5089443;28;20039;-81
2023/03/06 13:42:26;;;;;;;1.80;1.25;;;;;;;;;;5082619;28;20029;-79
2023/03/06 13:44:51;;;;;;;2.03;1.40;;;;;;;;;;5082983;28;20028;-81
2023/03/06 13:47:40;;;;;;;3.85;1.48;;;;;;;;;;5084279;28;20028;-79
2023/03/06 13:50:19;;;;;;;3.28;1.50;;;;;;;;;;5078508;28;20035;-81
2023/03/06 13:53:09;;;;;;;2.42;1.60;;;;;;;;;;5082939;28;20089;-81
2023/03/06 13:55:50;;;;;;;1.02;0.88;;;;;;;;;;5081740;28;20091;-83
2023/03/06 13:58:40;;;;;;;2.45;1.25;;;;;;;;;;5087279;28;20027;-80
2023/03/06 14:01:20;;;;;;;1.42;1.15;;;;;;;;;;5090483;28;20064;-79
2023/03/06 14:04:25;;;;;;;1.48;0.65;;;;;;;;;;5085307;28;20033;-80
2023/03/06 14:07:02;;;;;;;5.95;1.90;;;;;;;;;;5085435;28;20028;-78
2023/03/06 14:09:40;;;;;;;2.42;1.23;;;;;;;;;;5086810;28;20020;-80
2023/03/06 14:12:33;;;;;;;1.15;0.80;;;;;;;;;;5094886;28;20040;-79
2023/03/06 14:15:17;;;;;;;1.83;1.73;;;;;;;;;;5077917;28;20489;-81
2023/03/06 14:17:51;;;;;;;1.65;0.70;;;;;;;;;;5088139;28;20039;-81
2023/03/06 14:20:19;;;;;;;1.23;0.75;;;;;;;;;;5089819;28;20031;-78
2023/03/06 14:22:45;;;;;;;4.57;1.13;;;;;;;;;;5090597;28;20032;-85
2023/03/06 14:25:25;;;;;;;1.63;0.90;;;;;;;;;;5082341;28;20111;-79
2023/03/06 14:27:51;;;;;;;2.38;1.40;;;;;;;;;;5087278;28;20081;-83
2023/03/06 14:30:20;;;;;;;2.28;1.00;;;;;;;;;;5109618;28;20023;-84
2023/03/06 14:32:48;;;;;;;1.55;1.02;;;;;;;;;;5084573;28;20151;-82
2023/03/06 14:35:28;;;;;;;1.45;0.98;;;;;;;;;;5091758;28;20028;-84
2023/03/06 14:38:01;;;;;;;2.90;1.50;;;;;;;;;;5091890;28;20430;-84
2023/03/06 14:40:51;;;;;;;1.98;1.08;;;;;;;;;;5088357;28;20031;-80
2023/03/06 14:43:45;;;;;;;;;;;;;;;;;;5085068;28;20032;-84
2023/03/06 14:46:19;;;;;;;4.28;2.20;;;;;;;;;;5092127;28;20367;-82
2023/03/06 14:48:45;;;;;;;3.72;2.13;;;;;;;;;;5081761;28;20024;-83
2023/03/06 14:51:20;;;;;;;3.28;2.13;;;;;;;;;;5089929;28;20119;-82
2023/03/06 14:53:51;;;;;;;1.63;1.17;;;;;;;;;;5082909;28;20036;-80
2023/03/06 14:56:25;;;;;;;1.60;1.20;;;;;;;;;;5090261;28;20028;-82
2023/03/06 14:58:53;;;;;;;2.92;2.00;;;;;;;;;;5079019;28;20028;-80
2023/03/06 15:01:28;;;;;;;3.28;1.48;;;;;;;;;;5087020;28;20024;-83